createdAt,value
2022-11-26T00:00:50.030Z,5.63
2022-11-26T00:03:17.893Z,5.05
2022-11-26T00:05:46.953Z,4.63
2022-11-26T00:08:19.468Z,4.85
2022-11-26T00:10:49.740Z,5.15
2022-11-26T00:13:21.093Z,5.03
2022-11-26T00:15:49.043Z,4.55
2022-11-26T00:18:16.829Z,3.58
2022-11-26T00:20:44.944Z,3.55
2022-11-26T00:23:19.652Z,4.00
2022-11-26T00:25:49.878Z,5.40
2022-11-26T00:28:37.135Z,4.07
2022-11-26T00:31:07.238Z,3.00
2022-11-26T00:33:34.378Z,4.97
2022-11-26T00:36:07.072Z,4.80
2022-11-26T00:38:34.828Z,3.92
2022-11-26T00:41:01.935Z,5.38
2022-11-26T00:43:29.050Z,4.40
2022-11-26T00:45:57.548Z,2.58
2022-11-26T00:48:24.704Z,3.88
2022-11-26T00:50:51.998Z,5.35
2022-11-26T00:53:22.462Z,3.50
2022-11-26T00:55:50.185Z,4.03
2022-11-26T00:58:24.267Z,5.25
2022-11-26T01:00:52.268Z,4.47
2022-11-26T01:03:20.902Z,3.33
2022-11-26T01:05:50.386Z,3.92
2022-11-26T01:08:27.462Z,4.25
2022-11-26T01:10:54.636Z,3.55
2022-11-26T01:13:21.795Z,4.72
2022-11-26T01:15:48.993Z,4.95
2022-11-26T01:18:18.931Z,4.32
2022-11-26T01:20:48.224Z,7.55
2022-11-26T01:23:16.946Z,5.03
2022-11-26T01:25:45.266Z,4.43
2022-11-26T01:28:15.100Z,5.18
2022-11-26T01:30:42.701Z,5.93
2022-11-26T01:33:09.854Z,4.72
2022-11-26T01:35:37.622Z,6.93
2022-11-26T01:38:06.187Z,4.15
2022-11-26T01:40:45.634Z,2.67
2022-11-26T01:43:20.426Z,4.80
2022-11-26T01:45:47.642Z,4.88
2022-11-26T01:48:27.908Z,4.38
2022-11-26T01:50:58.812Z,5.20
2022-11-26T01:53:49.277Z,3.75
2022-11-26T01:56:20.787Z,3.97
2022-11-26T01:58:51.058Z,3.70
2022-11-26T02:01:19.139Z,4.22
2022-11-26T02:03:55.337Z,3.28
2022-11-26T02:06:27.864Z,4.43
2022-11-26T02:08:58.034Z,3.47
2022-11-26T02:11:25.514Z,4.00
2022-11-26T02:13:55.741Z,4.18
2022-11-26T02:16:45.911Z,3.35
2022-11-26T02:19:45.373Z,4.13
2022-11-26T02:22:29.170Z,4.90
2022-11-26T02:25:05.227Z,3.95
2022-11-26T02:28:03.247Z,5.03
2022-11-26T02:30:36.258Z,3.58
2022-11-26T02:33:09.258Z,4.20
2022-11-26T02:35:42.615Z,3.05
2022-11-26T02:38:12.548Z,3.90
2022-11-26T02:40:39.646Z,3.47
2022-11-26T02:43:06.765Z,3.53
2022-11-26T02:45:39.024Z,4.25
2022-11-26T02:48:10.004Z,3.42
2022-11-26T02:50:47.636Z,2.85
2022-11-26T02:53:17.540Z,3.42
2022-11-26T02:55:48.620Z,3.30
2022-11-26T02:58:16.930Z,4.25
2022-11-26T03:00:48.276Z,4.07
2022-11-26T03:03:20.058Z,5.20
2022-11-26T03:05:47.385Z,3.97
2022-11-26T03:08:15.325Z,3.03
2022-11-26T03:10:42.440Z,3.53
2022-11-26T03:13:09.649Z,4.05
2022-11-26T03:15:36.806Z,3.50
2022-11-26T03:18:05.407Z,4.22
2022-11-26T03:20:32.540Z,4.30
2022-11-26T03:22:59.703Z,2.53
2022-11-26T03:25:26.821Z,3.90
2022-11-26T03:27:53.971Z,3.30
2022-11-26T03:30:21.443Z,3.38
2022-11-26T03:32:48.549Z,4.05
2022-11-26T03:35:17.180Z,4.10
2022-11-26T03:37:44.733Z,4.25
2022-11-26T03:40:12.358Z,3.88
2022-11-26T03:42:39.495Z,4.20
2022-11-26T03:45:07.366Z,4.80
2022-11-26T03:47:34.500Z,4.30
2022-11-26T03:50:01.630Z,4.15
2022-11-26T03:52:30.153Z,3.60
2022-11-26T03:54:57.284Z,5.30
2022-11-26T03:57:24.388Z,4.07
2022-11-26T03:59:51.766Z,4.05
2022-11-26T04:02:18.959Z,3.05
2022-11-26T04:04:46.071Z,3.28
2022-11-26T04:07:13.323Z,4.10
2022-11-26T04:09:41.815Z,3.47
2022-11-26T04:12:08.934Z,3.38
2022-11-26T04:14:36.522Z,3.88
2022-11-26T04:17:03.886Z,4.95
2022-11-26T04:19:31.054Z,5.00
2022-11-26T04:21:58.189Z,3.22
2022-11-26T04:24:25.408Z,4.40
2022-11-26T04:26:53.891Z,5.13
2022-11-26T04:29:21.183Z,3.42
2022-11-26T04:31:48.354Z,3.88
2022-11-26T04:34:15.533Z,3.78
2022-11-26T04:36:42.682Z,3.47
2022-11-26T04:39:09.798Z,3.22
2022-11-26T04:41:36.934Z,3.78
2022-11-26T04:44:05.530Z,4.45
2022-11-26T04:46:32.695Z,3.65
2022-11-26T04:49:00.655Z,3.33
2022-11-26T04:51:27.828Z,5.82
2022-11-26T04:53:55.938Z,2.50
2022-11-26T04:56:23.441Z,6.60
2022-11-26T04:58:51.062Z,6.78
2022-11-26T05:01:19.612Z,3.20
2022-11-26T05:03:46.730Z,4.70
2022-11-26T05:06:13.861Z,5.47
2022-11-26T05:08:40.952Z,3.53
2022-11-26T05:11:08.088Z,4.63
2022-11-26T05:13:35.217Z,5.53
2022-11-26T05:16:02.411Z,4.20
2022-11-26T05:18:31.063Z,3.47
2022-11-26T05:20:58.356Z,4.22
2022-11-26T05:23:25.468Z,3.40
2022-11-26T05:25:52.823Z,6.10
2022-11-26T05:28:19.951Z,3.45
2022-11-26T05:30:47.075Z,4.15
2022-11-26T05:33:14.262Z,3.65
2022-11-26T05:35:42.744Z,3.95
2022-11-26T05:38:09.974Z,5.45
2022-11-26T05:40:37.071Z,5.88
2022-11-26T05:43:04.189Z,6.32
2022-11-26T05:45:31.350Z,5.45
2022-11-26T05:47:58.479Z,3.90
2022-11-26T05:50:25.735Z,7.05
2022-11-26T05:52:54.208Z,8.43
2022-11-26T05:55:21.355Z,4.07
2022-11-26T05:57:48.502Z,7.68
2022-11-26T06:00:16.704Z,4.85
2022-11-26T06:02:44.105Z,4.43
2022-11-26T06:05:12.012Z,4.18
2022-11-26T06:07:43.330Z,4.90
2022-11-26T06:10:14.141Z,4.15
2022-11-26T06:12:41.255Z,3.65
2022-11-26T06:15:09.444Z,4.22
2022-11-26T06:17:36.732Z,4.28
2022-11-26T06:20:04.785Z,3.72
2022-11-26T06:22:36.474Z,2.58
2022-11-26T06:25:03.974Z,2.88
2022-11-26T06:27:34.343Z,7.43
2022-11-26T06:30:01.637Z,7.75
2022-11-26T06:32:29.344Z,4.03
2022-11-26T06:34:56.474Z,3.25
2022-11-26T06:37:24.076Z,8.45
2022-11-26T06:39:51.599Z,4.63
2022-11-26T06:42:18.959Z,4.97
2022-11-26T06:44:47.470Z,10.88
2022-11-26T06:47:14.607Z,8.55
2022-11-26T06:49:42.188Z,341.20
2022-11-26T06:52:09.319Z,863.75
2022-11-26T06:54:36.907Z,1401.93
2022-11-26T06:57:04.372Z,1095.13
2022-11-26T06:59:31.706Z,566.30
2022-11-26T07:02:00.285Z,535.28
2022-11-26T07:04:27.573Z,526.20
2022-11-26T07:06:54.678Z,498.55
2022-11-26T07:09:21.799Z,489.70
2022-11-26T07:11:48.919Z,462.08
2022-11-26T07:14:16.053Z,443.20
2022-11-26T07:16:43.195Z,436.08
2022-11-26T07:19:13.564Z,436.70
2022-11-26T07:21:41.263Z,430.95
2022-11-26T07:24:08.482Z,430.13
2022-11-26T07:26:35.743Z,426.27
2022-11-26T07:29:03.114Z,411.55
2022-11-26T07:31:30.260Z,393.98
2022-11-26T07:33:57.781Z,392.42
2022-11-26T07:36:27.925Z,381.48
2022-11-26T07:38:55.917Z,381.88
2022-11-26T07:41:23.925Z,375.25
2022-11-26T07:43:51.644Z,367.70
2022-11-26T07:46:21.301Z,357.83
2022-11-26T07:48:48.943Z,348.38
2022-11-26T07:51:18.786Z,348.73
2022-11-26T07:53:48.064Z,334.60
2022-11-26T07:56:15.323Z,323.33
2022-11-26T07:58:42.520Z,326.08
2022-11-26T08:01:11.320Z,317.23
2022-11-26T08:03:38.714Z,316.95
2022-11-26T08:06:07.618Z,314.70
2022-11-26T08:08:34.967Z,300.90
2022-11-26T08:11:04.492Z,301.50
2022-11-26T08:13:31.627Z,301.13
2022-11-26T08:15:58.784Z,292.25
2022-11-26T08:18:25.899Z,293.33
2022-11-26T08:20:56.256Z,285.80
2022-11-26T08:23:23.827Z,278.98
2022-11-26T08:26:20.403Z,271.75
2022-11-26T08:28:41.671Z,260.33
2022-11-26T08:31:10.680Z,263.38
2022-11-26T08:33:38.189Z,255.60
2022-11-26T08:36:08.372Z,259.92
2022-11-26T08:38:36.331Z,251.93
2022-11-26T08:41:05.802Z,251.88
2022-11-26T08:44:04.620Z,249.02
2022-11-26T08:46:23.690Z,245.48
2022-11-26T08:48:50.923Z,241.30
2022-11-26T08:51:18.040Z,255.73
2022-11-26T08:53:45.137Z,227.27
2022-11-26T08:56:12.798Z,229.25
2022-11-26T08:58:41.580Z,221.05
2022-11-26T09:01:09.577Z,219.52
2022-11-26T09:03:38.593Z,222.38
2022-11-26T09:06:07.278Z,202.55
2022-11-26T09:08:34.838Z,203.40
2022-11-26T09:11:01.962Z,201.80
2022-11-26T09:13:29.136Z,204.63
2022-11-26T09:15:56.277Z,189.55
2022-11-26T09:18:23.423Z,196.18
2022-11-26T09:20:57.001Z,186.43
2022-11-26T09:23:24.467Z,190.57
2022-11-26T09:25:51.582Z,186.20
2022-11-26T09:28:18.686Z,177.43
2022-11-26T09:30:46.026Z,180.75
2022-11-26T09:33:13.143Z,169.60
2022-11-26T09:35:40.256Z,165.90
2022-11-26T09:38:08.776Z,167.40
2022-11-26T09:40:45.509Z,184.68
2022-11-26T09:43:25.061Z,168.35
2022-11-26T09:45:57.900Z,163.88
2022-11-26T09:48:26.330Z,165.80
2022-11-26T09:51:00.101Z,150.35
2022-11-26T09:53:34.389Z,160.07
2022-11-26T09:56:01.923Z,146.70
2022-11-26T09:58:33.979Z,149.18
2022-11-26T10:01:05.270Z,146.35
2022-11-26T10:03:35.371Z,137.43
2022-11-26T10:06:08.269Z,124.25
2022-11-26T10:09:01.935Z,132.63
2022-11-26T10:11:36.458Z,127.65
2022-11-26T10:14:18.515Z,127.75
2022-11-26T10:16:58.802Z,131.80
2022-11-26T10:19:37.918Z,119.95
2022-11-26T10:22:16.599Z,116.13
2022-11-26T10:24:45.400Z,119.85
2022-11-26T10:27:15.892Z,115.28
2022-11-26T10:29:46.246Z,120.82
2022-11-26T10:32:16.277Z,116.35
2022-11-26T10:34:50.634Z,115.00
2022-11-26T10:37:18.744Z,112.38
2022-11-26T10:39:47.405Z,109.75
2022-11-26T10:42:17.991Z,104.40
2022-11-26T10:44:46.218Z,107.05
2022-11-26T10:47:22.982Z,103.28
2022-11-26T10:49:51.824Z,104.43
2022-11-26T10:52:22.981Z,94.03
2022-11-26T10:55:16.398Z,95.60
2022-11-26T10:57:48.641Z,93.60
2022-11-26T11:00:34.559Z,95.50
2022-11-26T11:03:03.361Z,90.95
2022-11-26T11:05:31.125Z,92.57
2022-11-26T11:07:58.365Z,82.95
2022-11-26T11:10:26.917Z,89.40
2022-11-26T11:13:10.289Z,85.00
2022-11-26T11:15:38.445Z,81.95
2022-11-26T11:18:14.557Z,85.32
2022-11-26T11:20:43.024Z,76.50
2022-11-26T11:23:21.159Z,79.93
2022-11-26T11:25:59.139Z,80.00
2022-11-26T11:28:28.742Z,82.72
2022-11-26T11:31:15.447Z,78.00
2022-11-26T11:33:43.501Z,78.53
2022-11-26T11:36:27.135Z,71.40
2022-11-26T11:38:56.293Z,69.70
2022-11-26T11:41:30.658Z,72.53
2022-11-26T11:44:00.106Z,70.20
2022-11-26T11:47:05.019Z,68.80
2022-11-26T11:49:47.860Z,64.03
2022-11-26T11:52:26.088Z,67.32
2022-11-26T11:55:01.376Z,62.75
2022-11-26T11:57:54.393Z,62.65
2022-11-26T12:00:23.868Z,60.60
2022-11-26T12:03:29.840Z,62.22
2022-11-26T12:06:11.924Z,59.80
2022-11-26T12:08:51.642Z,54.70
2022-11-26T12:11:30.083Z,57.85
2022-11-26T12:14:03.805Z,52.88
2022-11-26T12:16:35.641Z,56.58
2022-11-26T12:19:10.535Z,54.20
2022-11-26T12:21:44.006Z,52.00
2022-11-26T12:24:19.890Z,49.00
2022-11-26T12:26:51.457Z,48.20
2022-11-26T12:29:29.589Z,48.17
2022-11-26T12:32:00.367Z,47.83
2022-11-26T12:34:31.749Z,48.47
2022-11-26T12:37:02.200Z,46.28
2022-11-26T12:39:38.687Z,46.67
2022-11-26T12:42:12.870Z,43.80
2022-11-26T12:47:17.519Z,38.33
2022-11-26T12:49:56.432Z,42.00
2022-11-26T12:52:31.040Z,41.90
2022-11-26T12:55:10.298Z,40.10
2022-11-26T12:57:42.263Z,39.88
2022-11-26T13:00:22.345Z,37.38
2022-11-26T13:02:52.406Z,40.97
2022-11-26T13:05:25.168Z,36.75
2022-11-26T13:08:07.936Z,35.28
2022-11-26T13:10:57.168Z,34.00
2022-11-26T13:13:35.884Z,36.95
2022-11-26T13:16:14.251Z,34.90
2022-11-26T13:18:45.050Z,33.88
2022-11-26T13:21:27.577Z,31.67
2022-11-26T13:24:21.084Z,29.75
2022-11-26T13:26:58.722Z,29.25
2022-11-26T13:29:57.059Z,31.52
2022-11-26T13:32:53.977Z,27.42
2022-11-26T13:35:45.729Z,27.90
2022-11-26T13:38:20.373Z,29.85
2022-11-26T13:41:09.757Z,28.83
2022-11-26T13:44:19.083Z,29.25
2022-11-26T13:46:51.058Z,29.80
2022-11-26T13:49:25.505Z,23.48
2022-11-26T13:51:56.757Z,25.40
2022-11-26T13:54:29.484Z,25.85
2022-11-26T13:57:00.090Z,24.80
2022-11-26T13:59:30.191Z,25.42
2022-11-26T14:01:57.469Z,22.98
2022-11-26T14:04:53.594Z,23.17
2022-11-26T14:07:21.135Z,21.30
2022-11-26T14:09:54.368Z,25.20
2022-11-26T14:12:22.982Z,23.50
2022-11-26T14:14:50.700Z,21.42
2022-11-26T14:17:31.265Z,20.08
2022-11-26T14:20:09.110Z,20.77
2022-11-26T14:22:37.445Z,17.88
2022-11-26T14:25:07.611Z,22.52
2022-11-26T14:27:36.828Z,21.75
2022-11-26T14:30:18.085Z,19.33
2022-11-26T14:32:51.534Z,18.40
2022-11-26T14:35:26.951Z,21.05
2022-11-26T14:37:58.369Z,17.05
2022-11-26T14:40:27.099Z,14.40
2022-11-26T14:43:08.465Z,17.20
2022-11-26T14:45:36.132Z,15.80
2022-11-26T14:48:04.061Z,15.27
2022-11-26T14:50:35.986Z,24.15
2022-11-26T14:53:06.673Z,20.15
2022-11-26T14:55:34.718Z,24.15
2022-11-26T14:58:09.193Z,26.88
2022-11-26T15:00:37.148Z,18.30
2022-11-26T15:03:18.632Z,17.67
2022-11-26T15:05:47.159Z,20.58
2022-11-26T15:08:17.614Z,14.38
2022-11-26T15:10:49.279Z,14.98
2022-11-26T15:13:22.930Z,15.55
2022-11-26T15:15:51.107Z,14.15
2022-11-26T15:18:19.794Z,22.10
2022-11-26T15:20:52.513Z,16.17
2022-11-26T15:23:28.005Z,19.13
2022-11-26T15:25:55.486Z,15.52
2022-11-26T15:28:23.142Z,15.43
2022-11-26T15:30:55.850Z,13.02
2022-11-26T15:33:24.049Z,10.77
2022-11-26T15:35:52.953Z,11.38
2022-11-26T15:38:20.662Z,12.50
2022-11-26T15:40:50.190Z,11.68
2022-11-26T15:43:22.803Z,11.40
2022-11-26T15:45:51.141Z,9.40
2022-11-26T15:48:28.052Z,14.05
2022-11-26T15:51:13.631Z,13.32
2022-11-26T15:53:46.884Z,10.75
2022-11-26T15:56:17.457Z,9.90
2022-11-26T15:58:48.714Z,13.45
2022-11-26T16:01:18.958Z,11.48
2022-11-26T16:03:48.300Z,15.45
2022-11-26T16:06:28.101Z,9.50
2022-11-26T16:09:01.458Z,9.43
2022-11-26T16:11:29.623Z,9.73
2022-11-26T16:13:56.898Z,19.83
2022-11-26T16:16:26.072Z,10.38
2022-11-26T16:18:56.508Z,10.60
2022-11-26T16:21:28.214Z,8.60
2022-11-26T16:23:59.352Z,8.45
2022-11-26T16:26:26.621Z,12.10
2022-11-26T16:28:54.030Z,9.30
2022-11-26T16:31:21.608Z,10.55
2022-11-26T16:33:48.962Z,11.00
2022-11-26T16:36:21.682Z,12.57
2022-11-26T16:38:50.797Z,13.30
2022-11-26T16:41:19.391Z,9.52
2022-11-26T16:43:46.595Z,13.95
2022-11-26T16:46:16.950Z,9.75
2022-11-26T16:48:45.209Z,7.18
2022-11-26T16:51:12.894Z,11.77
2022-11-26T16:53:40.075Z,10.70
2022-11-26T16:58:50.907Z,11.80
2022-11-26T17:01:18.415Z,12.27
2022-11-26T17:03:45.636Z,14.82
2022-11-26T17:06:15.442Z,9.85
2022-11-26T17:08:47.897Z,6.55
2022-11-26T17:13:45.290Z,7.90
2022-11-26T17:16:15.014Z,7.13
2022-11-26T17:18:42.567Z,8.27
2022-11-26T17:21:09.990Z,9.05
2022-11-26T17:23:37.398Z,12.65
2022-11-26T17:26:15.418Z,11.10
2022-11-26T17:28:43.938Z,9.27
2022-11-26T17:31:11.259Z,8.25
2022-11-26T17:33:38.839Z,10.55
2022-11-26T17:36:14.474Z,7.38
2022-11-26T17:38:42.009Z,7.18
2022-11-26T17:41:09.228Z,10.02
2022-11-26T17:43:36.349Z,6.53
2022-11-26T17:46:05.247Z,6.90
2022-11-26T17:48:32.401Z,7.53
2022-11-26T17:50:59.499Z,7.22
2022-11-26T17:53:26.650Z,8.05
2022-11-26T17:55:53.741Z,7.60
2022-11-26T17:58:20.835Z,8.27
2022-11-26T18:00:48.191Z,5.68
2022-11-26T18:03:16.809Z,8.00
2022-11-26T18:05:43.919Z,8.63
2022-11-26T18:08:11.065Z,8.73
2022-11-26T18:10:39.779Z,6.53
2022-11-26T18:13:07.088Z,7.80
2022-11-26T18:15:34.318Z,16.02
2022-11-26T18:18:01.508Z,9.40
2022-11-26T18:20:30.002Z,8.48
2022-11-26T18:22:59.628Z,7.72
2022-11-26T18:25:27.616Z,9.70
2022-11-26T18:27:55.161Z,7.32
2022-11-26T18:30:22.465Z,9.00
2022-11-26T18:32:49.574Z,7.70
2022-11-26T18:35:17.022Z,7.80
2022-11-26T18:37:45.535Z,8.30
2022-11-26T18:40:15.533Z,6.80
2022-11-26T18:42:42.992Z,8.55
2022-11-26T18:45:13.225Z,14.23
2022-11-26T18:47:40.365Z,6.15
2022-11-26T18:50:08.444Z,12.60
2022-11-26T18:52:35.619Z,8.30
2022-11-26T18:55:04.574Z,9.95
2022-11-26T18:57:32.209Z,9.15
2022-11-26T18:59:59.329Z,9.93
2022-11-26T19:02:26.499Z,10.93
2022-11-26T19:04:53.691Z,10.45
2022-11-26T19:07:20.923Z,10.00
2022-11-26T19:09:48.252Z,13.65
2022-11-26T19:12:16.828Z,11.38
2022-11-26T19:14:43.960Z,7.95
2022-11-26T19:17:11.167Z,8.43
2022-11-26T19:19:38.757Z,7.30
2022-11-26T19:22:06.317Z,7.35
2022-11-26T19:24:33.485Z,9.98
2022-11-26T19:27:00.573Z,8.95
2022-11-26T19:29:29.055Z,7.63
2022-11-26T19:31:56.163Z,9.27
2022-11-26T19:34:23.309Z,5.13
2022-11-26T19:36:50.423Z,6.18
2022-11-26T19:39:17.555Z,7.07
2022-11-26T19:41:44.650Z,10.05
2022-11-26T19:44:11.862Z,8.35
2022-11-26T19:46:40.345Z,8.52
2022-11-26T19:49:09.296Z,8.02
2022-11-26T19:51:36.441Z,8.57
2022-11-26T19:54:03.776Z,10.05
2022-11-26T19:56:31.497Z,10.32
2022-11-26T19:58:59.487Z,8.50
2022-11-26T20:01:27.745Z,7.03
2022-11-26T20:03:57.310Z,10.15
2022-11-26T20:06:26.570Z,8.80
2022-11-26T20:08:54.641Z,7.55
2022-11-26T20:11:22.073Z,6.75
2022-11-26T20:13:50.047Z,6.53
2022-11-26T20:16:19.856Z,6.10
2022-11-26T20:18:47.763Z,7.50
2022-11-26T20:21:19.051Z,8.10
2022-11-26T20:23:47.000Z,9.70
2022-11-26T20:26:17.159Z,8.73
2022-11-26T20:28:44.642Z,7.25
2022-11-26T20:31:13.385Z,9.18
2022-11-26T20:33:41.020Z,7.55
2022-11-26T20:36:10.278Z,9.20
2022-11-26T20:38:39.054Z,9.75
2022-11-26T20:41:08.752Z,8.10
2022-11-26T20:43:36.468Z,8.75
2022-11-26T20:46:05.939Z,9.02
2022-11-26T20:48:34.892Z,7.22
2022-11-26T20:51:03.426Z,6.82
2022-11-26T20:53:30.864Z,10.50
2022-11-26T20:55:59.445Z,6.30
2022-11-26T20:58:27.409Z,5.70
2022-11-26T21:00:55.716Z,6.60
2022-11-26T21:03:23.986Z,9.30
2022-11-26T21:05:51.731Z,6.38
2022-11-26T21:08:19.586Z,14.77
2022-11-26T21:10:46.706Z,7.25
2022-11-26T21:13:17.098Z,6.15
2022-11-26T21:15:45.607Z,6.80
2022-11-26T21:18:12.884Z,6.45
2022-11-26T21:20:40.666Z,6.70
2022-11-26T21:23:08.419Z,7.90
2022-11-26T21:25:36.591Z,6.15
2022-11-26T21:28:04.110Z,6.20
2022-11-26T21:30:32.789Z,7.50
2022-11-26T21:33:01.348Z,7.88
2022-11-26T21:35:32.311Z,7.00
2022-11-26T21:38:00.266Z,7.80
2022-11-26T21:40:28.015Z,7.47
2022-11-26T21:42:55.240Z,6.68
2022-11-26T21:45:23.102Z,8.02
2022-11-26T21:47:52.004Z,8.52
2022-11-26T21:50:19.677Z,6.30
2022-11-26T21:52:46.818Z,7.78
2022-11-26T21:55:14.016Z,7.45
2022-11-26T21:57:41.152Z,7.53
2022-11-26T22:00:09.522Z,7.43
2022-11-26T22:02:36.762Z,7.13
2022-11-26T22:05:05.748Z,9.00
2022-11-26T22:07:33.091Z,8.30
2022-11-26T22:10:00.340Z,6.70
2022-11-26T22:12:27.601Z,7.97
2022-11-26T22:14:54.766Z,8.07
2022-11-26T22:17:21.868Z,7.10
2022-11-26T22:19:48.974Z,8.88
2022-11-26T22:22:17.441Z,6.82
2022-11-26T22:24:44.580Z,8.13
2022-11-26T22:27:11.744Z,8.73
2022-11-26T22:29:40.372Z,8.48
2022-11-26T22:32:07.633Z,8.10
2022-11-26T22:34:34.809Z,6.63
2022-11-26T22:37:01.919Z,5.68
2022-11-26T22:39:30.491Z,8.02
2022-11-26T22:41:57.821Z,8.18
2022-11-26T22:44:25.042Z,7.25
2022-11-26T22:46:52.200Z,8.80
2022-11-26T22:49:19.354Z,8.90
2022-11-26T22:51:46.450Z,8.63
2022-11-26T22:54:15.549Z,6.35
2022-11-26T22:56:44.340Z,9.40
2022-11-26T22:59:13.866Z,9.15
2022-11-26T23:01:41.416Z,9.68
2022-11-26T23:04:10.110Z,8.07
2022-11-26T23:06:38.394Z,6.90
2022-11-26T23:09:07.269Z,7.80
2022-11-26T23:11:37.167Z,6.18
2022-11-26T23:14:06.059Z,7.85
2022-11-26T23:16:34.298Z,6.15
2022-11-26T23:19:02.653Z,7.00
2022-11-26T23:21:31.493Z,6.47
2022-11-26T23:23:58.709Z,9.27
2022-11-26T23:26:28.095Z,7.28
2022-11-26T23:28:55.995Z,8.95
2022-11-26T23:31:26.649Z,6.85
2022-11-26T23:33:54.420Z,8.40
2022-11-26T23:36:22.188Z,7.30
2022-11-26T23:38:49.313Z,6.95
2022-11-26T23:41:16.593Z,7.53
2022-11-26T23:43:44.686Z,6.65
2022-11-26T23:46:15.028Z,5.90
2022-11-26T23:48:44.864Z,7.50
2022-11-26T23:51:14.261Z,8.88
2022-11-26T23:53:43.667Z,9.48
2022-11-26T23:56:13.684Z,7.43
2022-11-26T23:58:40.791Z,6.22
